LPMA

Details ICAO LPMA (FNC)
Name Madeira
Region Portugal
Timezone Atlantic/Madeira (UTC+1.0)
Plans Departing 1042
Arriving 1698
Stats Elevation 192 ft / 59 m (AMSL)
Location 32.697704° -16.774449°
Runways 1
Magnetic Variation 4.917° W
Sunrise 2018-06-22 06:01:11 UTC / 2018-06-22 07:01:11 Local
Sunset 2018-06-22 20:19:27 UTC / 2018-06-22 21:19:27 Local
Advertisement - Login to hide

Runways

ID Width Length Bearing (true) Bearing (mag) Surface Threshold Offset Overrun Length
05 141 ft / 43 m 8,683 ft / 2,647 m 42.98° 47.90° Asphalt 472 ft / 144 m 0 ft / 0 m
23 141 ft / 43 m 8,683 ft / 2,647 m 222.99° 227.91° Asphalt 466 ft / 142 m 0 ft / 0 m

Map

Weather


0- 5 10 15 20 25 30 35+ Temperature / ° C

Clouds and Precipitation
Forecast for 2018-06-23 00:00 UTC. Updated an hour ago

Ground ~20,000 ft ~40,000 ft Winds

METAR

LPMA 222230Z VRB02KT 9999 FEW016 19/15 Q1019

TAF

TAF LPMA 221700Z 2218/2318 VRB05KT 9999 SCT015 TEMPO 2218/2306 FEW015 BKN030 PROB30 TEMPO 2222/2303 6000 -RA BKN015

Frequencies

Tower 118.35 MHz TWR
Approach 119.20 MHz APP
Warning: Do not use this data for real-world aviation or navigation. No guarantee of current accuracy is given.